sensor_id;sensor_type;location;lat;lon;timestamp;P1;durP1;ratioP1;P2;durP2;ratioP2
56291;SDS011;54008;53.606;9.462;2022-07-06T00:01:14;3.40;;;1.40;;
56291;SDS011;54008;53.606;9.462;2022-07-06T00:03:39;4.07;;;1.80;;
56291;SDS011;54008;53.606;9.462;2022-07-06T00:06:04;4.90;;;1.67;;
56291;SDS011;54008;53.606;9.462;2022-07-06T00:08:30;6.13;;;1.50;;
56291;SDS011;54008;53.606;9.462;2022-07-06T00:10:55;6.67;;;1.70;;
56291;SDS011;54008;53.606;9.462;2022-07-06T00:13:21;5.63;;;1.40;;
56291;SDS011;54008;53.606;9.462;2022-07-06T00:15:46;4.82;;;1.73;;
56291;SDS011;54008;53.606;9.462;2022-07-06T00:18:11;6.45;;;1.63;;
56291;SDS011;54008;53.606;9.462;2022-07-06T00:20:37;8.25;;;1.77;;
56291;SDS011;54008;53.606;9.462;2022-07-06T00:23:02;6.83;;;2.03;;
56291;SDS011;54008;53.606;9.462;2022-07-06T00:25:27;6.00;;;1.70;;
56291;SDS011;54008;53.606;9.462;2022-07-06T00:27:52;5.20;;;1.67;;
56291;SDS011;54008;53.606;9.462;2022-07-06T00:30:18;4.53;;;1.70;;
56291;SDS011;54008;53.606;9.462;2022-07-06T00:32:43;4.35;;;1.55;;
56291;SDS011;54008;53.606;9.462;2022-07-06T00:35:08;6.13;;;2.03;;
56291;SDS011;54008;53.606;9.462;2022-07-06T00:37:33;4.97;;;1.90;;
56291;SDS011;54008;53.606;9.462;2022-07-06T00:39:59;7.47;;;2.20;;
56291;SDS011;54008;53.606;9.462;2022-07-06T00:42:24;5.87;;;1.60;;
56291;SDS011;54008;53.606;9.462;2022-07-06T00:44:50;5.20;;;2.03;;
56291;SDS011;54008;53.606;9.462;2022-07-06T00:47:15;4.30;;;1.83;;
56291;SDS011;54008;53.606;9.462;2022-07-06T00:49:40;4.22;;;1.55;;
56291;SDS011;54008;53.606;9.462;2022-07-06T00:52:24;8.50;;;2.17;;
56291;SDS011;54008;53.606;9.462;2022-07-06T00:54:49;6.07;;;1.83;;
56291;SDS011;54008;53.606;9.462;2022-07-06T00:57:15;5.30;;;1.67;;
56291;SDS011;54008;53.606;9.462;2022-07-06T00:59:40;7.95;;;1.73;;
56291;SDS011;54008;53.606;9.462;2022-07-06T01:02:07;7.00;;;1.98;;
56291;SDS011;54008;53.606;9.462;2022-07-06T01:04:32;7.73;;;1.70;;
56291;SDS011;54008;53.606;9.462;2022-07-06T01:06:58;2.97;;;1.50;;
56291;SDS011;54008;53.606;9.462;2022-07-06T01:09:23;9.20;;;2.67;;
56291;SDS011;54008;53.606;9.462;2022-07-06T01:11:48;4.78;;;1.67;;
56291;SDS011;54008;53.606;9.462;2022-07-06T01:14:14;6.72;;;1.80;;
56291;SDS011;54008;53.606;9.462;2022-07-06T01:16:39;6.93;;;1.85;;
56291;SDS011;54008;53.606;9.462;2022-07-06T01:19:05;6.70;;;1.70;;
56291;SDS011;54008;53.606;9.462;2022-07-06T01:21:30;5.93;;;1.33;;
56291;SDS011;54008;53.606;9.462;2022-07-06T01:23:55;6.88;;;1.85;;
56291;SDS011;54008;53.606;9.462;2022-07-06T01:26:21;6.53;;;2.10;;
56291;SDS011;54008;53.606;9.462;2022-07-06T01:28:47;8.13;;;2.10;;
56291;SDS011;54008;53.606;9.462;2022-07-06T01:31:14;5.68;;;2.17;;
56291;SDS011;54008;53.606;9.462;2022-07-06T01:33:40;7.30;;;1.80;;
56291;SDS011;54008;53.606;9.462;2022-07-06T01:36:05;7.83;;;1.77;;
56291;SDS011;54008;53.606;9.462;2022-07-06T01:38:31;3.08;;;2.05;;
56291;SDS011;54008;53.606;9.462;2022-07-06T01:40:56;5.70;;;2.00;;
56291;SDS011;54008;53.606;9.462;2022-07-06T01:43:21;7.93;;;1.70;;
56291;SDS011;54008;53.606;9.462;2022-07-06T01:45:46;5.85;;;1.70;;
56291;SDS011;54008;53.606;9.462;2022-07-06T01:48:12;8.00;;;1.58;;
56291;SDS011;54008;53.606;9.462;2022-07-06T01:50:37;6.40;;;2.03;;
56291;SDS011;54008;53.606;9.462;2022-07-06T01:53:02;8.30;;;2.00;;
56291;SDS011;54008;53.606;9.462;2022-07-06T01:55:27;3.07;;;1.80;;
56291;SDS011;54008;53.606;9.462;2022-07-06T01:57:53;6.20;;;1.77;;
56291;SDS011;54008;53.606;9.462;2022-07-06T02:00:18;5.87;;;1.77;;
56291;SDS011;54008;53.606;9.462;2022-07-06T02:02:43;6.40;;;1.70;;
56291;SDS011;54008;53.606;9.462;2022-07-06T02:05:08;5.93;;;1.77;;
56291;SDS011;54008;53.606;9.462;2022-07-06T02:07:35;4.50;;;1.25;;
56291;SDS011;54008;53.606;9.462;2022-07-06T02:10:00;4.83;;;1.57;;
56291;SDS011;54008;53.606;9.462;2022-07-06T02:12:25;8.90;;;1.95;;
56291;SDS011;54008;53.606;9.462;2022-07-06T02:14:51;8.63;;;1.85;;
56291;SDS011;54008;53.606;9.462;2022-07-06T02:17:16;7.13;;;1.77;;
56291;SDS011;54008;53.606;9.462;2022-07-06T02:19:42;6.32;;;1.50;;
56291;SDS011;54008;53.606;9.462;2022-07-06T02:22:07;4.80;;;1.98;;
56291;SDS011;54008;53.606;9.462;2022-07-06T02:24:32;8.43;;;2.00;;
56291;SDS011;54008;53.606;9.462;2022-07-06T02:26:57;5.23;;;1.57;;
56291;SDS011;54008;53.606;9.462;2022-07-06T02:29:23;9.67;;;1.60;;
56291;SDS011;54008;53.606;9.462;2022-07-06T02:31:48;9.63;;;1.90;;
56291;SDS011;54008;53.606;9.462;2022-07-06T02:34:13;9.07;;;1.73;;
56291;SDS011;54008;53.606;9.462;2022-07-06T02:36:39;5.50;;;1.70;;
56291;SDS011;54008;53.606;9.462;2022-07-06T02:39:04;4.00;;;1.42;;
56291;SDS011;54008;53.606;9.462;2022-07-06T02:41:29;4.97;;;1.67;;
56291;SDS011;54008;53.606;9.462;2022-07-06T02:43:54;6.73;;;2.10;;
56291;SDS011;54008;53.606;9.462;2022-07-06T02:46:20;6.00;;;1.27;;
56291;SDS011;54008;53.606;9.462;2022-07-06T02:48:45;7.17;;;1.70;;
56291;SDS011;54008;53.606;9.462;2022-07-06T02:51:10;7.90;;;1.50;;
56291;SDS011;54008;53.606;9.462;2022-07-06T02:53:35;5.00;;;1.90;;
56291;SDS011;54008;53.606;9.462;2022-07-06T02:56:01;5.77;;;1.40;;
56291;SDS011;54008;53.606;9.462;2022-07-06T02:58:26;3.63;;;1.25;;
56291;SDS011;54008;53.606;9.462;2022-07-06T03:00:51;5.33;;;1.30;;
56291;SDS011;54008;53.606;9.462;2022-07-06T03:03:16;7.70;;;1.40;;
56291;SDS011;54008;53.606;9.462;2022-07-06T03:05:42;4.97;;;1.88;;
56291;SDS011;54008;53.606;9.462;2022-07-06T03:08:07;3.53;;;1.47;;
56291;SDS011;54008;53.606;9.462;2022-07-06T03:10:32;3.13;;;1.42;;
56291;SDS011;54008;53.606;9.462;2022-07-06T03:12:57;6.70;;;1.90;;
56291;SDS011;54008;53.606;9.462;2022-07-06T03:15:23;4.53;;;1.65;;
56291;SDS011;54008;53.606;9.462;2022-07-06T03:17:48;4.40;;;1.57;;
56291;SDS011;54008;53.606;9.462;2022-07-06T03:20:13;3.85;;;1.40;;
56291;SDS011;54008;53.606;9.462;2022-07-06T03:22:38;6.18;;;1.75;;
56291;SDS011;54008;53.606;9.462;2022-07-06T03:25:04;7.97;;;1.63;;
56291;SDS011;54008;53.606;9.462;2022-07-06T03:27:29;3.58;;;1.50;;
56291;SDS011;54008;53.606;9.462;2022-07-06T03:29:54;3.00;;;1.40;;
56291;SDS011;54008;53.606;9.462;2022-07-06T03:32:20;5.68;;;2.17;;
56291;SDS011;54008;53.606;9.462;2022-07-06T03:34:45;6.80;;;1.77;;
56291;SDS011;54008;53.606;9.462;2022-07-06T03:37:10;5.57;;;1.50;;
56291;SDS011;54008;53.606;9.462;2022-07-06T03:39:35;5.33;;;2.07;;
56291;SDS011;54008;53.606;9.462;2022-07-06T03:42:01;6.77;;;1.60;;
56291;SDS011;54008;53.606;9.462;2022-07-06T03:44:26;6.45;;;1.98;;
56291;SDS011;54008;53.606;9.462;2022-07-06T03:46:51;9.40;;;1.50;;
56291;SDS011;54008;53.606;9.462;2022-07-06T03:49:20;6.47;;;1.60;;
56291;SDS011;54008;53.606;9.462;2022-07-06T03:51:45;6.47;;;1.80;;
56291;SDS011;54008;53.606;9.462;2022-07-06T03:54:10;5.73;;;1.40;;
56291;SDS011;54008;53.606;9.462;2022-07-06T03:56:36;5.88;;;1.33;;
56291;SDS011;54008;53.606;9.462;2022-07-06T03:59:03;5.30;;;1.30;;
56291;SDS011;54008;53.606;9.462;2022-07-06T04:01:29;6.82;;;1.50;;
56291;SDS011;54008;53.606;9.462;2022-07-06T04:03:55;7.70;;;1.33;;
56291;SDS011;54008;53.606;9.462;2022-07-06T04:06:20;2.60;;;1.27;;
56291;SDS011;54008;53.606;9.462;2022-07-06T04:08:46;4.88;;;1.17;;
56291;SDS011;54008;53.606;9.462;2022-07-06T04:11:11;2.50;;;1.20;;
56291;SDS011;54008;53.606;9.462;2022-07-06T04:13:36;4.93;;;1.30;;
56291;SDS011;54008;53.606;9.462;2022-07-06T04:16:03;6.05;;;1.38;;
56291;SDS011;54008;53.606;9.462;2022-07-06T04:18:29;4.70;;;1.20;;
56291;SDS011;54008;53.606;9.462;2022-07-06T04:20:55;3.50;;;1.00;;
56291;SDS011;54008;53.606;9.462;2022-07-06T04:23:22;6.10;;;1.33;;
56291;SDS011;54008;53.606;9.462;2022-07-06T04:25:47;5.13;;;1.52;;
56291;SDS011;54008;53.606;9.462;2022-07-06T04:28:12;7.20;;;1.40;;
56291;SDS011;54008;53.606;9.462;2022-07-06T04:30:38;4.67;;;1.93;;
56291;SDS011;54008;53.606;9.462;2022-07-06T04:33:03;8.10;;;1.50;;
56291;SDS011;54008;53.606;9.462;2022-07-06T04:35:28;6.82;;;2.15;;
56291;SDS011;54008;53.606;9.462;2022-07-06T04:37:53;5.40;;;1.60;;
56291;SDS011;54008;53.606;9.462;2022-07-06T04:40:19;8.70;;;1.92;;
56291;SDS011;54008;53.606;9.462;2022-07-06T04:42:44;3.78;;;1.48;;
56291;SDS011;54008;53.606;9.462;2022-07-06T04:45:09;6.83;;;1.30;;
56291;SDS011;54008;53.606;9.462;2022-07-06T04:47:35;5.97;;;1.70;;
56291;SDS011;54008;53.606;9.462;2022-07-06T04:50:00;5.30;;;1.65;;
56291;SDS011;54008;53.606;9.462;2022-07-06T04:52:26;8.43;;;1.73;;
56291;SDS011;54008;53.606;9.462;2022-07-06T04:54:52;9.80;;;1.92;;
56291;SDS011;54008;53.606;9.462;2022-07-06T04:57:19;10.50;;;1.73;;
56291;SDS011;54008;53.606;9.462;2022-07-06T04:59:44;5.47;;;1.90;;
56291;SDS011;54008;53.606;9.462;2022-07-06T05:02:09;12.00;;;1.93;;
56291;SDS011;54008;53.606;9.462;2022-07-06T05:04:34;7.55;;;2.17;;
56291;SDS011;54008;53.606;9.462;2022-07-06T05:07:00;8.35;;;1.95;;
56291;SDS011;54008;53.606;9.462;2022-07-06T05:09:25;8.55;;;1.67;;
56291;SDS011;54008;53.606;9.462;2022-07-06T05:11:50;7.53;;;1.60;;
56291;SDS011;54008;53.606;9.462;2022-07-06T05:14:15;8.03;;;1.47;;
56291;SDS011;54008;53.606;9.462;2022-07-06T05:16:41;5.88;;;1.38;;
56291;SDS011;54008;53.606;9.462;2022-07-06T05:19:06;5.87;;;1.50;;
56291;SDS011;54008;53.606;9.462;2022-07-06T05:21:32;7.00;;;1.27;;
56291;SDS011;54008;53.606;9.462;2022-07-06T05:23:57;8.00;;;2.25;;
56291;SDS011;54008;53.606;9.462;2022-07-06T05:26:22;6.40;;;1.50;;
56291;SDS011;54008;53.606;9.462;2022-07-06T05:28:47;6.05;;;1.83;;
56291;SDS011;54008;53.606;9.462;2022-07-06T05:31:13;5.07;;;1.20;;
56291;SDS011;54008;53.606;9.462;2022-07-06T05:33:38;2.75;;;1.30;;
56291;SDS011;54008;53.606;9.462;2022-07-06T05:36:03;4.67;;;1.50;;
56291;SDS011;54008;53.606;9.462;2022-07-06T05:38:29;5.47;;;1.30;;
56291;SDS011;54008;53.606;9.462;2022-07-06T05:40:54;7.00;;;2.05;;
56291;SDS011;54008;53.606;9.462;2022-07-06T05:43:20;5.13;;;1.60;;
56291;SDS011;54008;53.606;9.462;2022-07-06T05:45:45;5.20;;;1.53;;
56291;SDS011;54008;53.606;9.462;2022-07-06T05:48:10;7.07;;;1.40;;
56291;SDS011;54008;53.606;9.462;2022-07-06T05:50:54;5.38;;;1.70;;
56291;SDS011;54008;53.606;9.462;2022-07-06T05:53:19;8.30;;;1.23;;
56291;SDS011;54008;53.606;9.462;2022-07-06T05:55:45;5.80;;;1.15;;
56291;SDS011;54008;53.606;9.462;2022-07-06T05:58:11;7.85;;;1.20;;
56291;SDS011;54008;53.606;9.462;2022-07-06T06:00:36;6.38;;;1.30;;
56291;SDS011;54008;53.606;9.462;2022-07-06T06:03:01;5.38;;;1.10;;
56291;SDS011;54008;53.606;9.462;2022-07-06T06:05:27;4.53;;;0.90;;
56291;SDS011;54008;53.606;9.462;2022-07-06T06:07:52;7.20;;;1.23;;
56291;SDS011;54008;53.606;9.462;2022-07-06T06:10:18;6.32;;;0.98;;
56291;SDS011;54008;53.606;9.462;2022-07-06T06:12:44;3.75;;;1.17;;
56291;SDS011;54008;53.606;9.462;2022-07-06T06:15:10;5.18;;;0.90;;
56291;SDS011;54008;53.606;9.462;2022-07-06T06:17:37;7.40;;;1.00;;
56291;SDS011;54008;53.606;9.462;2022-07-06T06:20:03;6.38;;;0.70;;
56291;SDS011;54008;53.606;9.462;2022-07-06T06:22:31;6.28;;;0.88;;
56291;SDS011;54008;53.606;9.462;2022-07-06T06:24:57;6.43;;;0.88;;
56291;SDS011;54008;53.606;9.462;2022-07-06T06:27:22;3.45;;;0.80;;
56291;SDS011;54008;53.606;9.462;2022-07-06T06:29:47;3.20;;;0.60;;
56291;SDS011;54008;53.606;9.462;2022-07-06T06:32:13;3.42;;;1.00;;
56291;SDS011;54008;53.606;9.462;2022-07-06T06:34:39;4.85;;;0.77;;
56291;SDS011;54008;53.606;9.462;2022-07-06T06:37:05;9.13;;;1.50;;
56291;SDS011;54008;53.606;9.462;2022-07-06T06:39:30;3.42;;;1.25;;
56291;SDS011;54008;53.606;9.462;2022-07-06T06:41:56;4.82;;;1.00;;
56291;SDS011;54008;53.606;9.462;2022-07-06T06:44:22;5.93;;;0.80;;
56291;SDS011;54008;53.606;9.462;2022-07-06T06:46:48;3.10;;;0.70;;
56291;SDS011;54008;53.606;9.462;2022-07-06T06:49:14;2.33;;;0.70;;
56291;SDS011;54008;53.606;9.462;2022-07-06T06:51:39;5.45;;;1.42;;
56291;SDS011;54008;53.606;9.462;2022-07-06T06:54:04;4.70;;;1.00;;
56291;SDS011;54008;53.606;9.462;2022-07-06T06:56:30;4.63;;;1.53;;
56291;SDS011;54008;53.606;9.462;2022-07-06T06:58:55;5.35;;;1.00;;
56291;SDS011;54008;53.606;9.462;2022-07-06T07:01:20;9.38;;;1.23;;
56291;SDS011;54008;53.606;9.462;2022-07-06T07:03:46;4.00;;;0.80;;
56291;SDS011;54008;53.606;9.462;2022-07-06T07:06:11;5.63;;;1.00;;
56291;SDS011;54008;53.606;9.462;2022-07-06T07:08:36;3.43;;;0.87;;
56291;SDS011;54008;53.606;9.462;2022-07-06T07:11:01;3.80;;;0.95;;
56291;SDS011;54008;53.606;9.462;2022-07-06T07:13:27;6.97;;;1.10;;
56291;SDS011;54008;53.606;9.462;2022-07-06T07:15:52;2.27;;;0.53;;
56291;SDS011;54008;53.606;9.462;2022-07-06T07:18:17;5.68;;;0.90;;
56291;SDS011;54008;53.606;9.462;2022-07-06T07:20:43;7.93;;;1.87;;
56291;SDS011;54008;53.606;9.462;2022-07-06T07:23:08;5.78;;;0.73;;
56291;SDS011;54008;53.606;9.462;2022-07-06T07:25:33;4.93;;;1.05;;
56291;SDS011;54008;53.606;9.462;2022-07-06T07:27:59;3.70;;;0.77;;
56291;SDS011;54008;53.606;9.462;2022-07-06T07:30:24;5.75;;;0.88;;
56291;SDS011;54008;53.606;9.462;2022-07-06T07:32:50;3.25;;;0.85;;
56291;SDS011;54008;53.606;9.462;2022-07-06T07:35:15;5.93;;;1.40;;
56291;SDS011;54008;53.606;9.462;2022-07-06T07:37:41;4.70;;;1.05;;
56291;SDS011;54008;53.606;9.462;2022-07-06T07:40:06;3.35;;;1.00;;
56291;SDS011;54008;53.606;9.462;2022-07-06T07:42:32;3.33;;;1.08;;
56291;SDS011;54008;53.606;9.462;2022-07-06T07:44:57;3.55;;;1.20;;
56291;SDS011;54008;53.606;9.462;2022-07-06T07:47:23;5.97;;;1.25;;
56291;SDS011;54008;53.606;9.462;2022-07-06T07:49:48;4.53;;;1.20;;
56291;SDS011;54008;53.606;9.462;2022-07-06T07:52:13;5.57;;;1.08;;
56291;SDS011;54008;53.606;9.462;2022-07-06T07:54:39;6.55;;;1.52;;
56291;SDS011;54008;53.606;9.462;2022-07-06T07:57:04;3.17;;;0.90;;
56291;SDS011;54008;53.606;9.462;2022-07-06T07:59:30;1.83;;;1.45;;
56291;SDS011;54008;53.606;9.462;2022-07-06T08:01:55;1.85;;;0.70;;
56291;SDS011;54008;53.606;9.462;2022-07-06T08:04:21;2.42;;;1.02;;
56291;SDS011;54008;53.606;9.462;2022-07-06T08:06:47;5.88;;;0.85;;
56291;SDS011;54008;53.606;9.462;2022-07-06T08:09:12;4.57;;;0.77;;
56291;SDS011;54008;53.606;9.462;2022-07-06T08:11:38;5.55;;;1.30;;
56291;SDS011;54008;53.606;9.462;2022-07-06T08:14:04;6.60;;;1.08;;
56291;SDS011;54008;53.606;9.462;2022-07-06T08:16:29;4.10;;;0.80;;
56291;SDS011;54008;53.606;9.462;2022-07-06T08:18:56;6.30;;;0.93;;
56291;SDS011;54008;53.606;9.462;2022-07-06T08:21:21;3.85;;;0.50;;
56291;SDS011;54008;53.606;9.462;2022-07-06T08:23:47;3.65;;;0.85;;
56291;SDS011;54008;53.606;9.462;2022-07-06T08:26:12;4.13;;;0.85;;
56291;SDS011;54008;53.606;9.462;2022-07-06T08:28:37;1.80;;;0.38;;
56291;SDS011;54008;53.606;9.462;2022-07-06T08:31:03;2.22;;;0.60;;
56291;SDS011;54008;53.606;9.462;2022-07-06T08:33:28;2.47;;;0.60;;
56291;SDS011;54008;53.606;9.462;2022-07-06T08:35:53;3.70;;;0.75;;
56291;SDS011;54008;53.606;9.462;2022-07-06T08:38:19;2.63;;;0.47;;
56291;SDS011;54008;53.606;9.462;2022-07-06T08:40:46;4.93;;;0.60;;
56291;SDS011;54008;53.606;9.462;2022-07-06T08:43:13;3.83;;;0.70;;
56291;SDS011;54008;53.606;9.462;2022-07-06T08:45:39;5.90;;;0.65;;
56291;SDS011;54008;53.606;9.462;2022-07-06T08:48:06;3.95;;;0.70;;
56291;SDS011;54008;53.606;9.462;2022-07-06T08:50:33;1.70;;;0.50;;
56291;SDS011;54008;53.606;9.462;2022-07-06T08:52:59;2.72;;;0.60;;
56291;SDS011;54008;53.606;9.462;2022-07-06T08:55:25;1.83;;;0.60;;
56291;SDS011;54008;53.606;9.462;2022-07-06T08:57:52;1.58;;;0.45;;
56291;SDS011;54008;53.606;9.462;2022-07-06T09:00:20;3.63;;;0.73;;
56291;SDS011;54008;53.606;9.462;2022-07-06T09:02:45;9.07;;;1.45;;
56291;SDS011;54008;53.606;9.462;2022-07-06T09:05:13;6.78;;;1.20;;
56291;SDS011;54008;53.606;9.462;2022-07-06T09:07:40;4.07;;;0.80;;
56291;SDS011;54008;53.606;9.462;2022-07-06T09:10:06;5.45;;;0.70;;
56291;SDS011;54008;53.606;9.462;2022-07-06T09:12:33;5.57;;;1.17;;
56291;SDS011;54008;53.606;9.462;2022-07-06T09:14:59;4.20;;;0.60;;
56291;SDS011;54008;53.606;9.462;2022-07-06T09:17:25;4.88;;;0.73;;
56291;SDS011;54008;53.606;9.462;2022-07-06T09:19:52;4.03;;;0.82;;
56291;SDS011;54008;53.606;9.462;2022-07-06T09:22:28;6.28;;;1.20;;
56291;SDS011;54008;53.606;9.462;2022-07-06T09:25:06;4.90;;;0.77;;
56291;SDS011;54008;53.606;9.462;2022-07-06T09:27:39;8.10;;;0.88;;
56291;SDS011;54008;53.606;9.462;2022-07-06T09:30:06;4.82;;;0.80;;
56291;SDS011;54008;53.606;9.462;2022-07-06T09:32:43;2.25;;;0.60;;
56291;SDS011;54008;53.606;9.462;2022-07-06T09:35:30;3.22;;;0.75;;
56291;SDS011;54008;53.606;9.462;2022-07-06T09:38:03;3.17;;;0.32;;
56291;SDS011;54008;53.606;9.462;2022-07-06T09:40:40;6.10;;;0.52;;
56291;SDS011;54008;53.606;9.462;2022-07-06T09:45:42;4.93;;;0.90;;
56291;SDS011;54008;53.606;9.462;2022-07-06T09:48:10;3.25;;;0.60;;
56291;SDS011;54008;53.606;9.462;2022-07-06T09:50:47;2.17;;;0.93;;
56291;SDS011;54008;53.606;9.462;2022-07-06T09:53:18;5.43;;;0.63;;
56291;SDS011;54008;53.606;9.462;2022-07-06T09:55:45;6.00;;;0.90;;
56291;SDS011;54008;53.606;9.462;2022-07-06T09:58:14;2.00;;;0.63;;
56291;SDS011;54008;53.606;9.462;2022-07-06T10:00:41;1.92;;;0.57;;
56291;SDS011;54008;53.606;9.462;2022-07-06T10:03:09;3.20;;;0.90;;
56291;SDS011;54008;53.606;9.462;2022-07-06T10:05:40;3.95;;;0.70;;
56291;SDS011;54008;53.606;9.462;2022-07-06T10:08:07;3.25;;;0.85;;
56291;SDS011;54008;53.606;9.462;2022-07-06T10:10:37;2.55;;;0.50;;
56291;SDS011;54008;53.606;9.462;2022-07-06T10:13:03;2.90;;;0.60;;
56291;SDS011;54008;53.606;9.462;2022-07-06T10:15:33;6.43;;;0.75;;
56291;SDS011;54008;53.606;9.462;2022-07-06T10:18:00;3.40;;;0.70;;
56291;SDS011;54008;53.606;9.462;2022-07-06T10:20:30;4.53;;;0.70;;
56291;SDS011;54008;53.606;9.462;2022-07-06T10:25:23;4.80;;;0.55;;
56291;SDS011;54008;53.606;9.462;2022-07-06T10:27:49;4.97;;;0.88;;
56291;SDS011;54008;53.606;9.462;2022-07-06T10:30:16;3.60;;;0.50;;
56291;SDS011;54008;53.606;9.462;2022-07-06T10:32:44;5.38;;;0.75;;
56291;SDS011;54008;53.606;9.462;2022-07-06T10:35:11;4.28;;;0.60;;
56291;SDS011;54008;53.606;9.462;2022-07-06T10:37:37;2.53;;;0.43;;
56291;SDS011;54008;53.606;9.462;2022-07-06T10:40:03;3.05;;;0.43;;
56291;SDS011;54008;53.606;9.462;2022-07-06T10:42:49;3.08;;;0.95;;
56291;SDS011;54008;53.606;9.462;2022-07-06T10:45:49;1.85;;;0.60;;
56291;SDS011;54008;53.606;9.462;2022-07-06T10:50:37;5.83;;;0.80;;
56291;SDS011;54008;53.606;9.462;2022-07-06T10:53:11;3.83;;;0.50;;
56291;SDS011;54008;53.606;9.462;2022-07-06T10:55:45;2.80;;;0.85;;
56291;SDS011;54008;53.606;9.462;2022-07-06T10:58:12;7.63;;;0.63;;
56291;SDS011;54008;53.606;9.462;2022-07-06T11:00:52;2.05;;;0.60;;
56291;SDS011;54008;53.606;9.462;2022-07-06T11:13:50;4.38;;;0.52;;
56291;SDS011;54008;53.606;9.462;2022-07-06T11:16:25;7.38;;;1.50;;
56291;SDS011;54008;53.606;9.462;2022-07-06T11:19:02;3.78;;;0.60;;
56291;SDS011;54008;53.606;9.462;2022-07-06T11:21:48;2.58;;;0.55;;
56291;SDS011;54008;53.606;9.462;2022-07-06T11:24:17;3.90;;;0.70;;
56291;SDS011;54008;53.606;9.462;2022-07-06T11:26:48;4.78;;;0.75;;
56291;SDS011;54008;53.606;9.462;2022-07-06T11:29:15;2.78;;;0.57;;
56291;SDS011;54008;53.606;9.462;2022-07-06T11:31:43;3.08;;;0.30;;
56291;SDS011;54008;53.606;9.462;2022-07-06T11:34:11;3.65;;;0.60;;
56291;SDS011;54008;53.606;9.462;2022-07-06T11:36:39;1.20;;;0.35;;
56291;SDS011;54008;53.606;9.462;2022-07-06T11:39:05;2.03;;;0.30;;
56291;SDS011;54008;53.606;9.462;2022-07-06T11:41:31;3.20;;;0.30;;
56291;SDS011;54008;53.606;9.462;2022-07-06T11:43:57;2.80;;;0.32;;
56291;SDS011;54008;53.606;9.462;2022-07-06T11:46:32;2.33;;;0.40;;
56291;SDS011;54008;53.606;9.462;2022-07-06T11:49:03;5.05;;;0.47;;
56291;SDS011;54008;53.606;9.462;2022-07-06T11:51:31;2.13;;;0.77;;
56291;SDS011;54008;53.606;9.462;2022-07-06T11:53:59;2.60;;;0.95;;
56291;SDS011;54008;53.606;9.462;2022-07-06T11:56:29;2.25;;;0.30;;
56291;SDS011;54008;53.606;9.462;2022-07-06T11:58:55;4.68;;;0.38;;
56291;SDS011;54008;53.606;9.462;2022-07-06T12:01:22;4.13;;;0.93;;
56291;SDS011;54008;53.606;9.462;2022-07-06T12:03:49;1.52;;;0.50;;
56291;SDS011;54008;53.606;9.462;2022-07-06T12:06:16;3.28;;;0.47;;
56291;SDS011;54008;53.606;9.462;2022-07-06T12:08:53;2.30;;;0.50;;
56291;SDS011;54008;53.606;9.462;2022-07-06T12:11:23;1.48;;;0.38;;
56291;SDS011;54008;53.606;9.462;2022-07-06T12:13:54;2.75;;;0.60;;
56291;SDS011;54008;53.606;9.462;2022-07-06T12:16:20;3.38;;;0.63;;
56291;SDS011;54008;53.606;9.462;2022-07-06T12:18:50;4.57;;;0.50;;
56291;SDS011;54008;53.606;9.462;2022-07-06T12:21:17;1.85;;;0.50;;
56291;SDS011;54008;53.606;9.462;2022-07-06T12:23:44;1.60;;;0.40;;
56291;SDS011;54008;53.606;9.462;2022-07-06T12:26:12;4.07;;;0.77;;
56291;SDS011;54008;53.606;9.462;2022-07-06T12:28:40;2.33;;;0.40;;
56291;SDS011;54008;53.606;9.462;2022-07-06T12:31:06;2.00;;;0.30;;
56291;SDS011;54008;53.606;9.462;2022-07-06T12:33:32;1.90;;;0.30;;
56291;SDS011;54008;53.606;9.462;2022-07-06T12:36:07;1.73;;;0.28;;
56291;SDS011;54008;53.606;9.462;2022-07-06T12:38:34;2.70;;;0.30;;
56291;SDS011;54008;53.606;9.462;2022-07-06T12:40:59;1.48;;;0.45;;
56291;SDS011;54008;53.606;9.462;2022-07-06T12:43:37;4.50;;;0.50;;
56291;SDS011;54008;53.606;9.462;2022-07-06T12:48:57;5.00;;;0.50;;
56291;SDS011;54008;53.606;9.462;2022-07-06T12:51:23;3.13;;;0.40;;
56291;SDS011;54008;53.606;9.462;2022-07-06T12:53:49;2.70;;;0.50;;
56291;SDS011;54008;53.606;9.462;2022-07-06T12:56:15;3.15;;;0.32;;
56291;SDS011;54008;53.606;9.462;2022-07-06T12:58:57;1.27;;;0.57;;
56291;SDS011;54008;53.606;9.462;2022-07-06T13:01:24;3.05;;;0.70;;
56291;SDS011;54008;53.606;9.462;2022-07-06T13:03:53;2.28;;;0.50;;
56291;SDS011;54008;53.606;9.462;2022-07-06T13:06:28;2.95;;;0.30;;
56291;SDS011;54008;53.606;9.462;2022-07-06T13:08:56;3.35;;;0.70;;
56291;SDS011;54008;53.606;9.462;2022-07-06T13:11:21;2.97;;;0.50;;
56291;SDS011;54008;53.606;9.462;2022-07-06T13:13:47;1.35;;;0.40;;
56291;SDS011;54008;53.606;9.462;2022-07-06T13:16:12;5.68;;;0.57;;
56291;SDS011;54008;53.606;9.462;2022-07-06T13:18:37;4.13;;;0.50;;
56291;SDS011;54008;53.606;9.462;2022-07-06T13:21:03;2.00;;;0.30;;
56291;SDS011;54008;53.606;9.462;2022-07-06T13:23:28;5.10;;;0.73;;
56291;SDS011;54008;53.606;9.462;2022-07-06T13:25:53;1.90;;;0.30;;
56291;SDS011;54008;53.606;9.462;2022-07-06T13:28:19;1.85;;;0.40;;
56291;SDS011;54008;53.606;9.462;2022-07-06T13:30:44;2.47;;;0.32;;
56291;SDS011;54008;53.606;9.462;2022-07-06T13:33:09;1.30;;;0.30;;
56291;SDS011;54008;53.606;9.462;2022-07-06T13:35:34;6.00;;;0.50;;
56291;SDS011;54008;53.606;9.462;2022-07-06T13:38:00;2.00;;;0.45;;
56291;SDS011;54008;53.606;9.462;2022-07-06T13:40:26;4.20;;;0.40;;
56291;SDS011;54008;53.606;9.462;2022-07-06T13:42:51;3.20;;;0.90;;
56291;SDS011;54008;53.606;9.462;2022-07-06T13:45:19;3.75;;;0.60;;
56291;SDS011;54008;53.606;9.462;2022-07-06T13:47:44;2.33;;;0.30;;
56291;SDS011;54008;53.606;9.462;2022-07-06T13:50:09;2.83;;;0.50;;
56291;SDS011;54008;53.606;9.462;2022-07-06T13:52:35;3.03;;;0.30;;
56291;SDS011;54008;53.606;9.462;2022-07-06T13:55:01;2.73;;;0.43;;
56291;SDS011;54008;53.606;9.462;2022-07-06T13:57:26;2.63;;;0.30;;
56291;SDS011;54008;53.606;9.462;2022-07-06T13:59:51;1.67;;;0.40;;
56291;SDS011;54008;53.606;9.462;2022-07-06T14:02:16;1.00;;;0.27;;
56291;SDS011;54008;53.606;9.462;2022-07-06T14:04:42;4.53;;;0.53;;
56291;SDS011;54008;53.606;9.462;2022-07-06T14:07:07;1.63;;;0.40;;
56291;SDS011;54008;53.606;9.462;2022-07-06T14:09:32;2.63;;;0.47;;
56291;SDS011;54008;53.606;9.462;2022-07-06T14:11:57;2.60;;;0.77;;
56291;SDS011;54008;53.606;9.462;2022-07-06T14:14:23;1.67;;;0.73;;
56291;SDS011;54008;53.606;9.462;2022-07-06T14:16:48;1.65;;;0.30;;
56291;SDS011;54008;53.606;9.462;2022-07-06T14:19:14;1.80;;;0.50;;
56291;SDS011;54008;53.606;9.462;2022-07-06T14:21:39;3.15;;;0.43;;
56291;SDS011;54008;53.606;9.462;2022-07-06T14:24:04;2.97;;;0.40;;
56291;SDS011;54008;53.606;9.462;2022-07-06T14:26:30;3.67;;;0.77;;
56291;SDS011;54008;53.606;9.462;2022-07-06T14:28:56;3.22;;;0.60;;
56291;SDS011;54008;53.606;9.462;2022-07-06T14:31:22;7.22;;;0.90;;
56291;SDS011;54008;53.606;9.462;2022-07-06T14:33:48;5.03;;;0.98;;
56291;SDS011;54008;53.606;9.462;2022-07-06T14:36:14;4.15;;;1.15;;
56291;SDS011;54008;53.606;9.462;2022-07-06T14:38:39;2.30;;;0.40;;
56291;SDS011;54008;53.606;9.462;2022-07-06T14:41:04;4.28;;;0.60;;
56291;SDS011;54008;53.606;9.462;2022-07-06T14:43:30;6.03;;;0.85;;
56291;SDS011;54008;53.606;9.462;2022-07-06T14:45:55;1.55;;;0.63;;
56291;SDS011;54008;53.606;9.462;2022-07-06T14:48:20;2.03;;;0.50;;
56291;SDS011;54008;53.606;9.462;2022-07-06T14:50:46;3.50;;;0.80;;
56291;SDS011;54008;53.606;9.462;2022-07-06T14:53:11;5.38;;;1.02;;
56291;SDS011;54008;53.606;9.462;2022-07-06T14:55:36;4.67;;;0.87;;
56291;SDS011;54008;53.606;9.462;2022-07-06T14:58:02;4.43;;;1.25;;
56291;SDS011;54008;53.606;9.462;2022-07-06T15:00:27;4.75;;;0.90;;
56291;SDS011;54008;53.606;9.462;2022-07-06T15:02:53;4.10;;;0.73;;
56291;SDS011;54008;53.606;9.462;2022-07-06T15:05:18;4.57;;;1.05;;